createdAt,value
2023-02-14T00:00:06.000Z,53.10
2023-02-14T00:02:35.266Z,53.10
2023-02-14T00:05:01.989Z,53.40
2023-02-14T00:07:28.724Z,53.10
2023-02-14T00:09:55.431Z,53.30
2023-02-14T00:12:22.154Z,53.50
2023-02-14T00:15:07.917Z,53.20
2023-02-14T00:17:34.709Z,53.20
2023-02-14T00:20:01.417Z,53.10
2023-02-14T00:22:28.184Z,53.20
2023-02-14T00:24:54.920Z,53.20
2023-02-14T00:27:21.765Z,53.50
2023-02-14T00:29:48.691Z,53.40
2023-02-14T00:32:15.510Z,53.20
2023-02-14T00:34:42.422Z,53.20
2023-02-14T00:37:10.481Z,54.00
2023-02-14T00:39:37.245Z,53.20
2023-02-14T00:42:06.020Z,53.20
2023-02-14T00:44:32.876Z,53.70
2023-02-14T00:46:59.561Z,53.20
2023-02-14T00:49:26.318Z,53.20
2023-02-14T00:51:53.096Z,53.20
2023-02-14T00:54:19.837Z,53.20
2023-02-14T00:56:46.641Z,53.20
2023-02-14T00:59:13.434Z,53.30
2023-02-14T01:01:41.910Z,53.60
2023-02-14T01:04:09.727Z,53.20
2023-02-14T01:06:38.514Z,53.20
2023-02-14T01:09:05.625Z,53.20
2023-02-14T01:11:33.576Z,53.20
2023-02-14T01:14:00.477Z,53.70
2023-02-14T01:16:29.122Z,53.20
2023-02-14T01:19:00.117Z,53.20
2023-02-14T01:21:33.152Z,53.40
2023-02-14T01:24:03.593Z,53.30
2023-02-14T01:26:30.792Z,53.20
2023-02-14T01:29:01.367Z,53.20
2023-02-14T01:31:32.139Z,53.30
2023-02-14T01:33:59.488Z,53.30
2023-02-14T01:36:32.024Z,53.20
2023-02-14T01:39:02.349Z,53.50
2023-02-14T01:41:32.673Z,53.70
2023-02-14T01:44:00.825Z,53.20
2023-02-14T01:46:31.339Z,53.20
2023-02-14T01:49:13.607Z,53.90
2023-02-14T01:51:44.598Z,53.20
2023-02-14T01:54:12.472Z,53.30
2023-02-14T01:56:44.075Z,53.20
2023-02-14T01:59:18.292Z,53.30
2023-02-14T02:01:48.062Z,53.30
2023-02-14T02:04:23.450Z,53.30
2023-02-14T02:06:59.602Z,53.30
2023-02-14T02:09:39.180Z,53.30
2023-02-14T02:12:06.949Z,53.60
2023-02-14T02:14:34.457Z,53.30
2023-02-14T02:17:10.254Z,53.40
2023-02-14T02:19:58.283Z,53.30
2023-02-14T02:23:01.356Z,53.30
2023-02-14T02:25:38.579Z,53.40
2023-02-14T02:28:30.060Z,53.50
2023-02-14T02:31:34.510Z,53.30
2023-02-14T02:34:39.426Z,53.30
2023-02-14T02:37:08.952Z,53.40
2023-02-14T02:40:01.799Z,53.40
2023-02-14T02:43:02.481Z,53.40
2023-02-14T02:46:09.249Z,53.30
2023-02-14T02:48:42.615Z,53.30
2023-02-14T02:51:34.424Z,53.30
2023-02-14T02:54:13.960Z,53.50
2023-02-14T02:56:53.420Z,53.50
2023-02-14T02:59:39.233Z,53.30
2023-02-14T03:02:10.848Z,53.30
2023-02-14T03:04:53.678Z,53.40
2023-02-14T03:07:37.145Z,53.40
2023-02-14T03:10:05.676Z,53.40
2023-02-14T03:12:37.355Z,53.50
2023-02-14T03:15:29.843Z,53.90
2023-02-14T03:18:49.056Z,53.50
2023-02-14T03:21:28.651Z,53.50
2023-02-14T03:24:15.257Z,53.50
2023-02-14T03:26:54.353Z,53.50
2023-02-14T03:29:51.530Z,53.60
2023-02-14T03:32:43.468Z,53.60
2023-02-14T03:35:45.543Z,53.60
2023-02-14T03:38:31.851Z,53.60
2023-02-14T03:41:03.924Z,53.60
2023-02-14T03:43:39.217Z,53.90
2023-02-14T03:46:16.378Z,54.10
2023-02-14T03:48:45.122Z,53.90
2023-02-14T03:51:14.589Z,53.60
2023-02-14T03:53:46.245Z,53.60
2023-02-14T03:56:15.752Z,53.90
2023-02-14T03:58:50.194Z,54.80
2023-02-14T04:01:24.562Z,53.60
2023-02-14T04:03:54.500Z,53.70
2023-02-14T04:06:21.458Z,53.70
2023-02-14T04:08:48.245Z,53.70
2023-02-14T04:11:16.271Z,54.10
2023-02-14T04:13:43.189Z,54.30
2023-02-14T04:16:09.960Z,53.70
2023-02-14T04:18:55.159Z,53.70
2023-02-14T04:21:21.905Z,54.40
2023-02-14T04:23:48.682Z,53.70
2023-02-14T04:26:15.378Z,53.90
2023-02-14T04:28:42.109Z,53.60
2023-02-14T04:31:10.331Z,54.00
2023-02-14T04:33:39.217Z,53.90
2023-02-14T04:36:06.400Z,53.60
2023-02-14T04:38:33.224Z,53.60
2023-02-14T04:41:00.317Z,54.00
2023-02-14T04:43:27.305Z,54.00
2023-02-14T04:45:54.066Z,53.70
2023-02-14T04:48:20.727Z,54.20
2023-02-14T04:50:52.509Z,53.60
2023-02-14T04:53:19.450Z,54.20
2023-02-14T04:55:48.614Z,53.70
2023-02-14T04:58:15.490Z,53.80
2023-02-14T05:00:42.251Z,54.00
2023-02-14T05:03:09.013Z,53.60
2023-02-14T05:05:35.701Z,53.90
2023-02-14T05:08:02.530Z,53.60
2023-02-14T05:10:29.678Z,54.00
2023-02-14T05:12:56.586Z,53.70
2023-02-14T05:15:23.263Z,53.70
2023-02-14T05:17:50.037Z,53.90
2023-02-14T05:20:16.914Z,54.40
2023-02-14T05:22:43.593Z,53.70
2023-02-14T05:25:10.381Z,53.70
2023-02-14T05:27:37.224Z,53.70
2023-02-14T05:30:04.161Z,53.70
2023-02-14T05:32:30.965Z,53.70
2023-02-14T05:34:59.191Z,53.70
2023-02-14T05:37:26.936Z,53.70
2023-02-14T05:39:53.730Z,53.70
2023-02-14T05:42:20.457Z,53.70
2023-02-14T05:44:48.079Z,53.70
2023-02-14T05:47:15.094Z,54.40
2023-02-14T05:49:41.831Z,53.90
2023-02-14T05:52:08.611Z,53.70
2023-02-14T05:54:35.418Z,53.70
2023-02-14T05:57:02.162Z,53.70
2023-02-14T05:59:28.925Z,53.70
2023-02-14T06:01:55.674Z,53.70
2023-02-14T06:04:22.395Z,53.70
2023-02-14T06:06:49.167Z,54.40
2023-02-14T06:09:16.084Z,53.70
2023-02-14T06:11:42.855Z,53.70
2023-02-14T06:14:09.640Z,53.70
2023-02-14T06:16:36.565Z,53.70
2023-02-14T06:19:03.457Z,53.70
2023-02-14T06:21:30.179Z,53.60
2023-02-14T06:23:56.961Z,53.70
2023-02-14T06:26:27.731Z,54.40
2023-02-14T06:28:56.060Z,53.60
2023-02-14T06:31:23.262Z,53.70
2023-02-14T06:33:50.767Z,53.60
2023-02-14T06:36:17.540Z,54.40
2023-02-14T06:38:44.633Z,53.90
2023-02-14T06:41:11.744Z,53.70
2023-02-14T06:43:38.655Z,53.70
2023-02-14T06:46:05.777Z,53.60
2023-02-14T06:48:32.621Z,53.60
2023-02-14T06:50:59.736Z,53.60
2023-02-14T06:53:26.569Z,54.30
2023-02-14T06:55:53.466Z,53.70
2023-02-14T06:58:20.334Z,54.00
2023-02-14T07:00:47.501Z,54.00
2023-02-14T07:03:14.632Z,54.10
2023-02-14T07:05:41.576Z,54.30
2023-02-14T07:08:08.388Z,53.80
2023-02-14T07:10:35.256Z,54.10
2023-02-14T07:13:02.123Z,54.10
2023-02-14T07:15:29.408Z,54.00
2023-02-14T07:17:56.299Z,53.50
2023-02-14T07:20:23.312Z,54.30
2023-02-14T07:22:50.084Z,53.50
2023-02-14T07:25:17.026Z,53.90
2023-02-14T07:27:44.291Z,53.40
2023-02-14T07:30:11.619Z,53.90
2023-02-14T07:32:39.504Z,53.40
2023-02-14T07:35:06.740Z,53.60
2023-02-14T07:37:34.386Z,53.30
2023-02-14T07:40:01.566Z,53.30
2023-02-14T07:42:28.530Z,53.40
2023-02-14T07:44:55.317Z,54.00
2023-02-14T07:47:21.997Z,54.00
2023-02-14T07:49:48.861Z,54.10
2023-02-14T07:52:15.759Z,53.70
2023-02-14T07:54:42.712Z,53.90
2023-02-14T07:57:09.489Z,55.00
2023-02-14T07:59:36.310Z,54.50
2023-02-14T08:02:03.510Z,54.90
2023-02-14T08:04:32.786Z,55.10
2023-02-14T08:07:00.297Z,55.00
2023-02-14T08:09:27.042Z,54.80
2023-02-14T08:12:14.799Z,55.00
2023-02-14T08:14:42.716Z,54.80
2023-02-14T08:17:10.083Z,55.00
2023-02-14T08:19:37.362Z,54.80
2023-02-14T08:22:04.856Z,54.60
2023-02-14T08:24:32.370Z,55.20
2023-02-14T08:26:59.975Z,54.70
2023-02-14T08:29:26.742Z,55.20
2023-02-14T08:31:53.626Z,54.50
2023-02-14T08:34:20.544Z,54.20
2023-02-14T08:36:47.482Z,54.20
2023-02-14T08:39:14.316Z,54.80
2023-02-14T08:41:41.096Z,54.70
2023-02-14T08:44:08.059Z,54.40
2023-02-14T08:46:34.962Z,54.50
2023-02-14T08:49:01.948Z,55.10
2023-02-14T08:51:28.871Z,54.40
2023-02-14T08:53:56.119Z,54.40
2023-02-14T08:56:23.631Z,54.40
2023-02-14T08:58:54.686Z,55.40
2023-02-14T09:01:21.869Z,54.70
2023-02-14T09:03:48.747Z,54.90
2023-02-14T09:06:17.272Z,54.80
2023-02-14T09:08:45.274Z,55.00
2023-02-14T09:11:15.264Z,55.00
2023-02-14T09:13:42.957Z,55.20
2023-02-14T09:16:11.425Z,54.40
2023-02-14T09:18:38.484Z,54.40
2023-02-14T09:21:15.107Z,54.40
2023-02-14T09:23:41.912Z,54.60
2023-02-14T09:26:11.786Z,54.50
2023-02-14T09:28:39.155Z,55.00
2023-02-14T09:31:13.334Z,54.50
2023-02-14T09:33:40.752Z,55.30
2023-02-14T09:36:26.693Z,54.60
2023-02-14T09:38:53.511Z,54.60
2023-02-14T09:41:29.318Z,54.70
2023-02-14T09:44:00.042Z,54.70
2023-02-14T09:46:29.463Z,54.80
2023-02-14T09:48:57.629Z,55.40
2023-02-14T09:51:28.750Z,55.30
2023-02-14T09:54:03.864Z,54.60
2023-02-14T09:56:33.572Z,55.10
2023-02-14T09:59:15.637Z,54.70
2023-02-14T10:01:46.582Z,54.60
2023-02-14T10:04:27.960Z,54.90
2023-02-14T10:07:12.054Z,54.60
2023-02-14T10:10:02.799Z,54.70
2023-02-14T10:12:31.808Z,54.60
2023-02-14T10:15:01.493Z,54.70
2023-02-14T10:17:40.823Z,54.80
2023-02-14T10:20:30.070Z,54.70
2023-02-14T10:23:11.762Z,54.60
2023-02-14T10:25:48.690Z,54.80
2023-02-14T10:28:17.625Z,54.70
2023-02-14T10:31:05.497Z,54.70
2023-02-14T10:33:36.633Z,55.30
2023-02-14T10:36:19.079Z,54.80
2023-02-14T10:39:04.445Z,54.80
2023-02-14T10:41:40.145Z,54.80
2023-02-14T10:44:25.397Z,55.10
2023-02-14T10:47:01.168Z,54.70
2023-02-14T10:49:57.977Z,54.70
2023-02-14T10:52:33.733Z,54.70
2023-02-14T10:55:12.460Z,54.80
2023-02-14T10:57:48.908Z,54.60
2023-02-14T11:00:38.212Z,55.20
2023-02-14T11:03:09.454Z,54.70
2023-02-14T11:05:46.202Z,54.70
2023-02-14T11:08:14.421Z,54.60
2023-02-14T11:10:41.382Z,54.90
2023-02-14T11:13:26.923Z,55.20
2023-02-14T11:15:54.093Z,54.50
2023-02-14T11:18:23.777Z,54.50
2023-02-14T11:21:10.123Z,54.60
2023-02-14T11:23:38.494Z,54.60
2023-02-14T11:26:11.644Z,54.50
2023-02-14T11:28:49.153Z,55.00
2023-02-14T11:31:25.675Z,54.40
2023-02-14T11:33:54.256Z,54.70
2023-02-14T11:36:21.544Z,54.40
2023-02-14T11:38:58.837Z,54.40
2023-02-14T11:41:26.149Z,54.60
2023-02-14T11:44:09.245Z,55.30
2023-02-14T11:46:47.617Z,54.70
2023-02-14T11:49:33.269Z,54.70
2023-02-14T11:52:10.285Z,54.70
2023-02-14T11:54:40.043Z,54.50
2023-02-14T11:57:27.644Z,54.80
2023-02-14T11:59:59.852Z,54.30
2023-02-14T12:02:37.934Z,54.40
2023-02-14T12:05:16.359Z,54.30
2023-02-14T12:07:45.776Z,54.30
2023-02-14T12:10:15.636Z,54.90
2023-02-14T12:12:56.057Z,55.10
2023-02-14T12:15:27.701Z,54.50
2023-02-14T12:18:38.865Z,55.10
2023-02-14T12:21:24.736Z,54.40
2023-02-14T12:23:59.848Z,54.40
2023-02-14T12:26:40.849Z,54.40
2023-02-14T12:29:20.007Z,54.40
2023-02-14T12:31:48.069Z,54.60
2023-02-14T12:34:17.465Z,54.40
2023-02-14T12:36:53.317Z,54.40
2023-02-14T12:39:35.549Z,54.40
2023-02-14T12:42:23.697Z,54.50
2023-02-14T12:45:11.754Z,54.40
2023-02-14T12:48:05.745Z,54.40
2023-02-14T12:50:35.416Z,54.40
2023-02-14T12:53:04.992Z,54.50
2023-02-14T12:55:56.225Z,54.60
2023-02-14T12:58:26.549Z,54.40
2023-02-14T13:01:06.380Z,54.40
2023-02-14T13:03:54.439Z,54.60
2023-02-14T13:06:27.918Z,54.80
2023-02-14T13:09:09.956Z,55.00
2023-02-14T13:11:53.003Z,55.10
2023-02-14T13:14:41.803Z,55.40
2023-02-14T13:17:36.769Z,55.40
2023-02-14T13:20:06.008Z,56.00
2023-02-14T13:22:35.618Z,55.80
2023-02-14T13:25:18.115Z,55.90
2023-02-14T13:27:45.091Z,56.00
2023-02-14T13:30:24.897Z,57.20
2023-02-14T13:32:54.937Z,56.30
2023-02-14T13:35:23.851Z,57.30
2023-02-14T13:37:58.551Z,57.60
2023-02-14T13:40:28.174Z,56.70
2023-02-14T13:43:00.419Z,56.80
2023-02-14T13:45:34.829Z,57.10
2023-02-14T13:48:10.232Z,57.20
2023-02-14T13:50:41.350Z,56.80
2023-02-14T13:53:12.939Z,57.90
2023-02-14T13:55:45.422Z,56.80
2023-02-14T13:58:19.162Z,57.00
2023-02-14T14:00:51.337Z,57.20
2023-02-14T14:03:30.444Z,57.60
2023-02-14T14:06:15.376Z,56.90
2023-02-14T14:08:52.084Z,57.10
2023-02-14T14:11:21.921Z,56.40
2023-02-14T14:14:03.045Z,56.30
2023-02-14T14:16:33.704Z,56.20
2023-02-14T14:19:05.059Z,56.30
2023-02-14T14:21:44.519Z,56.70
2023-02-14T14:24:32.963Z,56.60
2023-02-14T14:27:15.865Z,55.80
2023-02-14T14:29:49.723Z,55.80
2023-02-14T14:32:21.507Z,56.20
2023-02-14T14:34:50.737Z,55.90
2023-02-14T14:37:20.257Z,56.00
2023-02-14T14:39:55.768Z,55.40
2023-02-14T14:42:25.837Z,55.40
2023-02-14T14:44:59.221Z,55.50
2023-02-14T14:47:29.391Z,55.30
2023-02-14T14:50:06.121Z,55.30
2023-02-14T14:52:37.402Z,56.20
2023-02-14T14:55:09.137Z,55.20
2023-02-14T14:57:40.176Z,55.10
2023-02-14T15:00:32.196Z,54.90
2023-02-14T15:03:11.408Z,54.60
2023-02-14T15:05:39.679Z,54.50
2023-02-14T15:08:24.928Z,54.40
2023-02-14T15:11:10.859Z,54.20
2023-02-14T15:13:57.274Z,54.10
2023-02-14T15:16:40.624Z,54.10
2023-02-14T15:19:11.339Z,54.00
2023-02-14T15:21:43.525Z,54.90
2023-02-14T15:24:15.860Z,54.10
2023-02-14T15:26:44.951Z,54.80
2023-02-14T15:29:21.658Z,54.30
2023-02-14T15:31:49.454Z,53.80
2023-02-14T15:34:18.386Z,53.90
2023-02-14T15:36:52.094Z,53.90
2023-02-14T15:39:22.084Z,53.50
2023-02-14T15:41:48.791Z,53.50
2023-02-14T15:44:20.841Z,53.40
2023-02-14T15:46:48.478Z,53.90
2023-02-14T15:49:22.821Z,53.90
2023-02-14T15:51:50.879Z,53.20
2023-02-14T15:54:41.278Z,53.80
2023-02-14T15:57:27.053Z,53.10
2023-02-14T15:59:54.086Z,53.10
2023-02-14T16:02:38.067Z,53.40
2023-02-14T16:05:25.124Z,53.00
2023-02-14T16:08:24.117Z,53.00
2023-02-14T16:11:03.267Z,52.90
2023-02-14T16:13:33.513Z,53.10
2023-02-14T16:16:09.249Z,52.80
2023-02-14T16:18:45.216Z,53.00
2023-02-14T16:21:27.635Z,52.80
2023-02-14T16:24:10.630Z,52.80
2023-02-14T16:26:40.062Z,52.80
2023-02-14T16:29:09.028Z,53.30
2023-02-14T16:31:43.073Z,52.80
2023-02-14T16:34:15.793Z,53.60
2023-02-14T16:36:43.104Z,52.90
2023-02-14T16:39:18.361Z,53.80
2023-02-14T16:41:47.183Z,53.50
2023-02-14T16:44:15.346Z,52.90
2023-02-14T16:46:43.235Z,52.90
2023-02-14T16:49:10.029Z,53.70
2023-02-14T16:51:37.302Z,53.20
2023-02-14T16:54:07.505Z,53.00
2023-02-14T16:56:54.713Z,53.00
2023-02-14T16:59:21.648Z,53.00
2023-02-14T17:01:48.769Z,53.10
2023-02-14T17:04:15.837Z,53.50
2023-02-14T17:06:48.080Z,54.10
2023-02-14T17:09:19.879Z,53.20
2023-02-14T17:11:50.548Z,53.30
2023-02-14T17:14:21.939Z,53.80
2023-02-14T17:16:49.249Z,54.10
2023-02-14T17:19:16.514Z,53.50
2023-02-14T17:21:43.732Z,53.70
2023-02-14T17:24:10.646Z,54.20
2023-02-14T17:26:38.039Z,53.20
2023-02-14T17:29:06.810Z,53.50
2023-02-14T17:31:34.892Z,53.20
2023-02-14T17:34:01.805Z,53.90
2023-02-14T17:36:30.275Z,53.90
2023-02-14T17:38:57.031Z,53.30
2023-02-14T17:41:26.413Z,53.30
2023-02-14T17:44:00.180Z,53.70
2023-02-14T17:46:31.768Z,53.40
2023-02-14T17:48:59.121Z,53.20
2023-02-14T17:51:25.921Z,53.80
2023-02-14T17:53:52.778Z,53.40
2023-02-14T17:56:22.224Z,54.10
2023-02-14T17:58:51.291Z,53.70
2023-02-14T18:01:20.732Z,53.30
2023-02-14T18:03:47.700Z,53.10
2023-02-14T18:06:15.079Z,54.10
2023-02-14T18:08:46.506Z,53.10
2023-02-14T18:11:14.064Z,53.00
2023-02-14T18:13:41.199Z,53.90
2023-02-14T18:16:10.993Z,54.00
2023-02-14T18:18:38.060Z,53.40
2023-02-14T18:21:07.109Z,53.60
2023-02-14T18:23:33.910Z,53.60
2023-02-14T18:26:04.572Z,52.90
2023-02-14T18:28:32.637Z,52.80
2023-02-14T18:31:07.737Z,52.80
2023-02-14T18:33:35.552Z,53.00
2023-02-14T18:36:07.745Z,53.10
2023-02-14T18:38:35.186Z,52.70
2023-02-14T18:41:15.910Z,53.50
2023-02-14T18:43:43.588Z,53.10
2023-02-14T18:46:12.987Z,53.60
2023-02-14T18:48:40.161Z,53.60
2023-02-14T18:51:13.088Z,53.30
2023-02-14T18:53:41.034Z,53.70
2023-02-14T18:56:10.521Z,52.90
2023-02-14T18:58:37.814Z,53.40
2023-02-14T19:01:12.700Z,53.20
2023-02-14T19:03:41.246Z,52.70
2023-02-14T19:06:09.661Z,52.90
2023-02-14T19:08:38.541Z,52.90
2023-02-14T19:11:11.596Z,53.40
2023-02-14T19:13:38.562Z,53.30
2023-02-14T19:16:18.946Z,53.30
2023-02-14T19:18:46.493Z,53.00
2023-02-14T19:21:16.434Z,53.10
2023-02-14T19:23:43.545Z,53.00
2023-02-14T19:26:12.509Z,53.00
2023-02-14T19:28:39.839Z,52.40
2023-02-14T19:31:07.505Z,52.70
2023-02-14T19:33:45.712Z,52.00
2023-02-14T19:36:15.437Z,52.00
2023-02-14T19:38:44.405Z,53.00
2023-02-14T19:41:31.828Z,52.80
2023-02-14T19:43:59.476Z,52.80
2023-02-14T19:46:27.736Z,52.70
2023-02-14T19:48:59.304Z,52.40
2023-02-14T19:51:29.185Z,52.00
2023-02-14T19:53:57.633Z,51.80
2023-02-14T19:56:26.812Z,52.70
2023-02-14T19:58:54.275Z,52.10
2023-02-14T20:01:36.234Z,52.70
2023-02-14T20:04:04.617Z,51.80
2023-02-14T20:06:31.436Z,51.80
2023-02-14T20:08:58.334Z,52.30
2023-02-14T20:11:38.840Z,51.80
2023-02-14T20:14:06.533Z,51.70
2023-02-14T20:16:34.961Z,52.90
2023-02-14T20:19:03.605Z,52.10
2023-02-14T20:21:30.526Z,52.80
2023-02-14T20:24:02.050Z,52.60
2023-02-14T20:26:30.704Z,52.70
2023-02-14T20:29:03.930Z,52.10
2023-02-14T20:31:32.785Z,52.60
2023-02-14T20:34:00.128Z,52.30
2023-02-14T20:36:27.100Z,52.70
2023-02-14T20:38:55.534Z,52.80
2023-02-14T20:41:22.873Z,52.60
2023-02-14T20:43:49.679Z,52.70
2023-02-14T20:46:16.512Z,51.80
2023-02-14T20:48:43.270Z,52.70
2023-02-14T20:51:16.041Z,52.80
2023-02-14T20:53:44.843Z,52.10
2023-02-14T20:56:13.540Z,52.00
2023-02-14T20:58:41.244Z,52.50
2023-02-14T21:01:14.194Z,51.90
2023-02-14T21:03:50.639Z,52.40
2023-02-14T21:06:19.351Z,51.80
2023-02-14T21:08:46.862Z,52.80
2023-02-14T21:11:15.800Z,52.20
2023-02-14T21:13:42.621Z,52.10
2023-02-14T21:16:14.563Z,52.60
2023-02-14T21:18:48.453Z,52.00
2023-02-14T21:21:18.097Z,52.00
2023-02-14T21:23:44.859Z,52.40
2023-02-14T21:26:11.547Z,52.40
2023-02-14T21:28:38.293Z,52.20
2023-02-14T21:31:07.033Z,52.30
2023-02-14T21:33:34.612Z,51.30
2023-02-14T21:36:12.183Z,52.10
2023-02-14T21:38:39.073Z,51.30
2023-02-14T21:41:11.083Z,52.00
2023-02-14T21:43:40.225Z,51.90
2023-02-14T21:46:09.364Z,51.90
2023-02-14T21:48:55.221Z,52.10
2023-02-14T21:51:22.313Z,51.90
2023-02-14T21:53:49.880Z,52.00
2023-02-14T21:56:20.064Z,51.30
2023-02-14T21:58:49.025Z,51.30
2023-02-14T22:01:18.724Z,51.50
2023-02-14T22:03:45.796Z,51.30
2023-02-14T22:06:15.873Z,51.50
2023-02-14T22:08:43.071Z,51.40
2023-02-14T22:11:12.471Z,51.50
2023-02-14T22:13:39.476Z,51.60
2023-02-14T22:16:13.738Z,51.40
2023-02-14T22:18:41.274Z,51.80
2023-02-14T22:21:11.463Z,51.40
2023-02-14T22:23:38.817Z,51.50
2023-02-14T22:26:24.192Z,51.60
2023-02-14T22:28:53.770Z,51.40
2023-02-14T22:31:20.828Z,51.60
2023-02-14T22:33:49.276Z,51.50
2023-02-14T22:36:16.556Z,51.60
2023-02-14T22:38:43.644Z,51.80
2023-02-14T22:41:19.073Z,51.70
2023-02-14T22:43:46.216Z,51.60
2023-02-14T22:46:16.904Z,51.70
2023-02-14T22:48:44.065Z,52.10
2023-02-14T22:51:27.681Z,52.20
2023-02-14T22:53:57.322Z,51.70
2023-02-14T22:56:35.830Z,52.00
2023-02-14T22:59:05.719Z,51.70
2023-02-14T23:01:33.746Z,51.70
2023-02-14T23:04:02.882Z,52.40
2023-02-14T23:06:31.620Z,51.60
2023-02-14T23:08:58.381Z,52.60
2023-02-14T23:11:28.474Z,51.90
2023-02-14T23:14:14.558Z,52.00
2023-02-14T23:17:00.463Z,52.40
2023-02-14T23:19:48.943Z,51.80
2023-02-14T23:22:19.416Z,51.70
2023-02-14T23:24:47.422Z,51.90
2023-02-14T23:27:15.056Z,51.90
2023-02-14T23:29:41.781Z,51.90
2023-02-14T23:32:08.859Z,52.00
2023-02-14T23:34:38.084Z,52.30
2023-02-14T23:37:05.586Z,52.70
2023-02-14T23:39:35.594Z,52.00
2023-02-14T23:42:06.676Z,52.10
2023-02-14T23:44:34.409Z,52.00
2023-02-14T23:47:04.208Z,52.10
2023-02-14T23:49:32.609Z,52.60
2023-02-14T23:51:59.913Z,52.20
2023-02-14T23:54:26.814Z,52.90
2023-02-14T23:56:54.123Z,52.70
2023-02-14T23:59:21.892Z,53.00
